sensor_id;sensor_type;location;lat;lon;timestamp;pressure;altitude;pressure_sealevel;temperature;humidity
30421;BME280;17218;54.070;10.012;2022-07-06T00:02:01;101945.13;;;14.46;100.00
30421;BME280;17218;54.070;10.012;2022-07-06T00:04:28;101942.53;;;14.45;100.00
30421;BME280;17218;54.070;10.012;2022-07-06T00:06:55;101940.81;;;14.39;100.00
30421;BME280;17218;54.070;10.012;2022-07-06T00:09:22;101936.50;;;14.33;100.00
30421;BME280;17218;54.070;10.012;2022-07-06T00:11:49;101941.75;;;14.27;100.00
30421;BME280;17218;54.070;10.012;2022-07-06T00:14:17;101938.28;;;14.23;100.00
30421;BME280;17218;54.070;10.012;2022-07-06T00:16:43;101935.69;;;14.22;100.00
30421;BME280;17218;54.070;10.012;2022-07-06T00:19:10;101944.38;;;14.19;100.00
30421;BME280;17218;54.070;10.012;2022-07-06T00:21:37;101943.50;;;14.14;100.00
30421;BME280;17218;54.070;10.012;2022-07-06T00:24:04;101946.13;;;14.12;100.00
30421;BME280;17218;54.070;10.012;2022-07-06T00:26:30;101946.13;;;14.09;100.00
30421;BME280;17218;54.070;10.012;2022-07-06T00:28:57;101950.47;;;14.10;100.00
30421;BME280;17218;54.070;10.012;2022-07-06T00:31:25;101949.59;;;14.16;100.00
30421;BME280;17218;54.070;10.012;2022-07-06T00:33:52;101942.66;;;14.10;100.00
30421;BME280;17218;54.070;10.012;2022-07-06T00:36:18;101953.91;;;14.18;100.00
30421;BME280;17218;54.070;10.012;2022-07-06T00:38:45;101946.09;;;14.18;100.00
30421;BME280;17218;54.070;10.012;2022-07-06T00:41:12;101946.09;;;14.25;100.00
30421;BME280;17218;54.070;10.012;2022-07-06T00:43:49;101942.66;;;14.16;100.00
30421;BME280;17218;54.070;10.012;2022-07-06T00:46:16;101942.63;;;14.13;100.00
30421;BME280;17218;54.070;10.012;2022-07-06T00:48:44;101949.59;;;14.08;100.00
30421;BME280;17218;54.070;10.012;2022-07-06T00:51:11;101950.44;;;14.15;100.00
30421;BME280;17218;54.070;10.012;2022-07-06T00:53:38;101943.50;;;14.20;100.00
30421;BME280;17218;54.070;10.012;2022-07-06T00:56:06;101945.22;;;14.21;100.00
30421;BME280;17218;54.070;10.012;2022-07-06T00:58:33;101941.75;;;14.17;100.00
30421;BME280;17218;54.070;10.012;2022-07-06T01:01:00;101937.41;;;14.19;100.00
30421;BME280;17218;54.070;10.012;2022-07-06T01:03:26;101938.28;;;14.17;100.00
30421;BME280;17218;54.070;10.012;2022-07-06T01:05:54;101940.03;;;14.16;100.00
30421;BME280;17218;54.070;10.012;2022-07-06T01:08:21;101945.25;;;14.16;100.00
30421;BME280;17218;54.070;10.012;2022-07-06T01:10:49;101943.53;;;14.12;100.00
30421;BME280;17218;54.070;10.012;2022-07-06T01:13:15;101942.66;;;14.12;100.00
30421;BME280;17218;54.070;10.012;2022-07-06T01:15:42;101946.13;;;14.15;100.00
30421;BME280;17218;54.070;10.012;2022-07-06T01:18:09;101946.13;;;14.12;100.00
30421;BME280;17218;54.070;10.012;2022-07-06T01:20:37;101943.53;;;14.06;100.00
30421;BME280;17218;54.070;10.012;2022-07-06T01:23:04;101943.53;;;14.12;100.00
30421;BME280;17218;54.070;10.012;2022-07-06T01:25:30;101935.69;;;14.14;100.00
30421;BME280;17218;54.070;10.012;2022-07-06T01:27:57;101941.81;;;14.05;100.00
30421;BME280;17218;54.070;10.012;2022-07-06T01:30:24;101938.34;;;14.00;100.00
30421;BME280;17218;54.070;10.012;2022-07-06T01:32:51;101940.09;;;13.98;100.00
30421;BME280;17218;54.070;10.012;2022-07-06T01:35:17;101934.00;;;14.00;100.00
30421;BME280;17218;54.070;10.012;2022-07-06T01:37:46;101931.34;;;14.10;100.00
30421;BME280;17218;54.070;10.012;2022-07-06T01:40:13;101935.69;;;14.17;100.00
30421;BME280;17218;54.070;10.012;2022-07-06T01:42:39;101924.44;;;14.09;100.00
30421;BME280;17218;54.070;10.012;2022-07-06T01:45:07;101920.13;;;13.95;100.00
30421;BME280;17218;54.070;10.012;2022-07-06T01:47:34;101931.38;;;14.05;100.00
30421;BME280;17218;54.070;10.012;2022-07-06T01:50:04;101924.44;;;13.93;100.00
30421;BME280;17218;54.070;10.012;2022-07-06T01:52:31;101922.72;;;14.01;100.00
30421;BME280;17218;54.070;10.012;2022-07-06T01:54:59;101920.94;;;14.08;100.00
30421;BME280;17218;54.070;10.012;2022-07-06T01:57:25;101923.56;;;14.08;100.00
30421;BME280;17218;54.070;10.012;2022-07-06T01:59:52;101924.41;;;14.10;100.00
30421;BME280;17218;54.070;10.012;2022-07-06T02:02:18;101913.13;;;14.14;100.00
30421;BME280;17218;54.070;10.012;2022-07-06T02:04:45;101914.88;;;14.06;100.00
30421;BME280;17218;54.070;10.012;2022-07-06T02:07:12;101916.63;;;14.02;100.00
30421;BME280;17218;54.070;10.012;2022-07-06T02:09:38;101922.72;;;13.97;100.00
30421;BME280;17218;54.070;10.012;2022-07-06T02:12:06;101917.47;;;14.04;100.00
30421;BME280;17218;54.070;10.012;2022-07-06T02:14:33;101927.03;;;14.09;100.00
30421;BME280;17218;54.070;10.012;2022-07-06T02:17:00;101929.63;;;14.09;100.00
30421;BME280;17218;54.070;10.012;2022-07-06T02:19:26;101930.50;;;14.12;100.00
30421;BME280;17218;54.070;10.012;2022-07-06T02:21:53;101925.28;;;14.14;100.00
30421;BME280;17218;54.070;10.012;2022-07-06T02:24:19;101927.91;;;14.11;100.00
30421;BME280;17218;54.070;10.012;2022-07-06T02:26:46;101923.53;;;14.10;100.00
30421;BME280;17218;54.070;10.012;2022-07-06T02:29:14;101919.22;;;14.01;100.00
30421;BME280;17218;54.070;10.012;2022-07-06T02:31:41;101920.97;;;14.05;100.00
30421;BME280;17218;54.070;10.012;2022-07-06T02:34:07;101919.22;;;14.05;100.00
30421;BME280;17218;54.070;10.012;2022-07-06T02:36:34;101920.09;;;13.97;100.00
30421;BME280;17218;54.070;10.012;2022-07-06T02:39:00;101916.66;;;13.96;100.00
30421;BME280;17218;54.070;10.012;2022-07-06T02:41:27;101915.78;;;13.88;100.00
30421;BME280;17218;54.070;10.012;2022-07-06T02:43:53;101925.34;;;13.84;100.00
30421;BME280;17218;54.070;10.012;2022-07-06T02:46:21;101927.09;;;13.74;100.00
30421;BME280;17218;54.070;10.012;2022-07-06T02:48:48;101920.19;;;13.70;100.00
30421;BME280;17218;54.070;10.012;2022-07-06T02:51:14;101935.78;;;13.76;100.00
30421;BME280;17218;54.070;10.012;2022-07-06T02:53:41;101925.38;;;13.81;100.00
30421;BME280;17218;54.070;10.012;2022-07-06T02:56:07;101924.47;;;13.82;100.00
30421;BME280;17218;54.070;10.012;2022-07-06T02:58:34;101932.31;;;13.71;100.00
30421;BME280;17218;54.070;10.012;2022-07-06T03:01:01;101947.91;;;13.82;100.00
30421;BME280;17218;54.070;10.012;2022-07-06T03:03:29;101942.72;;;13.88;100.00
30421;BME280;17218;54.070;10.012;2022-07-06T03:05:55;101947.06;;;13.92;100.00
30421;BME280;17218;54.070;10.012;2022-07-06T03:08:22;101956.59;;;13.93;100.00
30421;BME280;17218;54.070;10.012;2022-07-06T03:10:48;101960.09;;;13.83;100.00
30421;BME280;17218;54.070;10.012;2022-07-06T03:13:15;101956.59;;;13.84;100.00
30421;BME280;17218;54.070;10.012;2022-07-06T03:15:41;101950.53;;;13.77;100.00
30421;BME280;17218;54.070;10.012;2022-07-06T03:18:08;101940.09;;;13.74;100.00
30421;BME280;17218;54.070;10.012;2022-07-06T03:20:36;101943.59;;;13.79;100.00
30421;BME280;17218;54.070;10.012;2022-07-06T03:23:02;101942.69;;;13.85;100.00
30421;BME280;17218;54.070;10.012;2022-07-06T03:25:29;101953.97;;;13.97;100.00
30421;BME280;17218;54.070;10.012;2022-07-06T03:27:57;101942.69;;;14.07;100.00
30421;BME280;17218;54.070;10.012;2022-07-06T03:30:24;101947.88;;;14.10;100.00
30421;BME280;17218;54.070;10.012;2022-07-06T03:32:50;101952.22;;;14.08;100.00
30421;BME280;17218;54.070;10.012;2022-07-06T03:35:17;101947.03;;;14.05;100.00
30421;BME280;17218;54.070;10.012;2022-07-06T03:37:45;101947.88;;;14.07;100.00
30421;BME280;17218;54.070;10.012;2022-07-06T03:40:12;101951.34;;;13.98;100.00
30421;BME280;17218;54.070;10.012;2022-07-06T03:42:40;101953.16;;;13.77;100.00
30421;BME280;17218;54.070;10.012;2022-07-06T03:45:08;101952.28;;;13.83;100.00
30421;BME280;17218;54.070;10.012;2022-07-06T03:47:35;101955.75;;;13.87;100.00
30421;BME280;17218;54.070;10.012;2022-07-06T03:50:01;101949.66;;;13.94;100.00
30421;BME280;17218;54.070;10.012;2022-07-06T03:52:28;101946.16;;;14.00;100.00
30421;BME280;17218;54.070;10.012;2022-07-06T03:54:56;101946.13;;;14.09;100.00
30421;BME280;17218;54.070;10.012;2022-07-06T03:57:23;101944.38;;;14.17;100.00
30421;BME280;17218;54.070;10.012;2022-07-06T03:59:50;101942.63;;;14.21;100.00
30421;BME280;17218;54.070;10.012;2022-07-06T04:02:17;101934.78;;;14.24;100.00
30421;BME280;17218;54.070;10.012;2022-07-06T04:04:44;101933.06;;;14.23;100.00
30421;BME280;17218;54.070;10.012;2022-07-06T04:07:10;101937.38;;;14.26;100.00
30421;BME280;17218;54.070;10.012;2022-07-06T04:09:37;101933.91;;;14.33;100.00
30421;BME280;17218;54.070;10.012;2022-07-06T04:12:06;101945.19;;;14.37;100.00
30421;BME280;17218;54.070;10.012;2022-07-06T04:14:32;101935.59;;;14.37;100.00
30421;BME280;17218;54.070;10.012;2022-07-06T04:17:00;101949.56;;;14.24;100.00
30421;BME280;17218;54.070;10.012;2022-07-06T04:19:47;101946.06;;;14.28;100.00
30421;BME280;17218;54.070;10.012;2022-07-06T04:22:14;101943.44;;;14.36;100.00
30421;BME280;17218;54.070;10.012;2022-07-06T04:24:41;101944.31;;;14.38;100.00
30421;BME280;17218;54.070;10.012;2022-07-06T04:27:09;101936.50;;;14.35;100.00
30421;BME280;17218;54.070;10.012;2022-07-06T04:29:36;101945.16;;;14.35;100.00
30421;BME280;17218;54.070;10.012;2022-07-06T04:32:03;101938.19;;;14.45;100.00
30421;BME280;17218;54.070;10.012;2022-07-06T04:34:30;101935.56;;;14.47;100.00
30421;BME280;17218;54.070;10.012;2022-07-06T04:36:56;101943.34;;;14.58;100.00
30421;BME280;17218;54.070;10.012;2022-07-06T04:39:23;101943.34;;;14.58;100.00
30421;BME280;17218;54.070;10.012;2022-07-06T04:41:49;101941.59;;;14.60;100.00
30421;BME280;17218;54.070;10.012;2022-07-06T04:44:17;101939.00;;;14.52;100.00
30421;BME280;17218;54.070;10.012;2022-07-06T04:46:44;101936.44;;;14.47;100.00
30421;BME280;17218;54.070;10.012;2022-07-06T04:49:10;101938.16;;;14.48;100.00
30421;BME280;17218;54.070;10.012;2022-07-06T04:51:37;101949.44;;;14.55;100.00
30421;BME280;17218;54.070;10.012;2022-07-06T04:54:04;101942.50;;;14.51;100.00
30421;BME280;17218;54.070;10.012;2022-07-06T04:56:30;101946.81;;;14.60;100.00
30421;BME280;17218;54.070;10.012;2022-07-06T04:58:57;101948.53;;;14.59;100.00
30421;BME280;17218;54.070;10.012;2022-07-06T05:01:25;101950.28;;;14.62;100.00
30421;BME280;17218;54.070;10.012;2022-07-06T05:03:52;101942.41;;;14.70;100.00
30421;BME280;17218;54.070;10.012;2022-07-06T05:06:18;101951.91;;;14.88;100.00
30421;BME280;17218;54.070;10.012;2022-07-06T05:08:45;101953.56;;;15.00;100.00
30421;BME280;17218;54.070;10.012;2022-07-06T05:11:11;101945.69;;;15.09;100.00
30421;BME280;17218;54.070;10.012;2022-07-06T05:13:38;101942.28;;;14.98;100.00
30421;BME280;17218;54.070;10.012;2022-07-06T05:16:05;101951.03;;;14.79;100.00
30421;BME280;17218;54.070;10.012;2022-07-06T05:18:33;101947.59;;;14.77;100.00
30421;BME280;17218;54.070;10.012;2022-07-06T05:20:59;101957.09;;;14.91;100.00
30421;BME280;17218;54.070;10.012;2022-07-06T05:23:26;101944.91;;;14.95;100.00
30421;BME280;17218;54.070;10.012;2022-07-06T05:25:53;101955.28;;;15.09;100.00
30421;BME280;17218;54.070;10.012;2022-07-06T05:28:20;101950.84;;;15.17;100.00
30421;BME280;17218;54.070;10.012;2022-07-06T05:30:46;101954.22;;;15.32;100.00
30421;BME280;17218;54.070;10.012;2022-07-06T05:33:13;101950.69;;;15.42;100.00
30421;BME280;17218;54.070;10.012;2022-07-06T05:35:41;101954.06;;;15.52;100.00
30421;BME280;17218;54.070;10.012;2022-07-06T05:38:08;101951.34;;;15.63;100.00
30421;BME280;17218;54.070;10.012;2022-07-06T05:40:34;101941.78;;;15.64;100.00
30421;BME280;17218;54.070;10.012;2022-07-06T05:43:01;101953.03;;;15.69;100.00
30421;BME280;17218;54.070;10.012;2022-07-06T05:45:27;101952.16;;;15.71;100.00
30421;BME280;17218;54.070;10.012;2022-07-06T05:47:54;101954.66;;;15.82;100.00
30421;BME280;17218;54.070;10.012;2022-07-06T05:50:38;101956.25;;;15.96;100.00
30421;BME280;17218;54.070;10.012;2022-07-06T05:53:06;101959.72;;;16.03;100.00
30421;BME280;17218;54.070;10.012;2022-07-06T05:55:33;101969.13;;;16.19;100.00
30421;BME280;17218;54.070;10.012;2022-07-06T05:58:00;101961.09;;;16.33;100.00
30421;BME280;17218;54.070;10.012;2022-07-06T06:00:27;101948.84;;;16.37;100.00
30421;BME280;17218;54.070;10.012;2022-07-06T06:02:54;101954.03;;;16.40;100.00
30421;BME280;17218;54.070;10.012;2022-07-06T06:05:21;101956.13;;;16.12;100.00
30421;BME280;17218;54.070;10.012;2022-07-06T06:07:47;101964.88;;;16.07;100.00
30421;BME280;17218;54.070;10.012;2022-07-06T06:10:19;101965.56;;;16.22;100.00
30421;BME280;17218;54.070;10.012;2022-07-06T06:12:47;101975.81;;;16.42;100.00
30421;BME280;17218;54.070;10.012;2022-07-06T06:15:13;101975.63;;;16.58;100.00
30421;BME280;17218;54.070;10.012;2022-07-06T06:17:40;101972.75;;;16.78;100.00
30421;BME280;17218;54.070;10.012;2022-07-06T06:20:08;101968.91;;;17.03;100.00
30421;BME280;17218;54.070;10.012;2022-07-06T06:22:44;101959.91;;;17.23;100.00
30421;BME280;17218;54.070;10.012;2022-07-06T06:25:11;101963.16;;;17.37;100.00
30421;BME280;17218;54.070;10.012;2022-07-06T06:27:38;101957.69;;;17.51;100.00
30421;BME280;17218;54.070;10.012;2022-07-06T06:30:06;101962.75;;;17.62;100.00
30421;BME280;17218;54.070;10.012;2022-07-06T06:32:33;101955.56;;;17.74;100.00
30421;BME280;17218;54.070;10.012;2022-07-06T06:34:59;101963.38;;;17.77;100.00
30421;BME280;17218;54.070;10.012;2022-07-06T06:37:26;101950.25;;;17.79;100.00
30421;BME280;17218;54.070;10.012;2022-07-06T06:39:52;101951.91;;;17.84;100.00
30421;BME280;17218;54.070;10.012;2022-07-06T06:42:19;101953.44;;;17.95;100.00
30421;BME280;17218;54.070;10.012;2022-07-06T06:44:47;101951.44;;;18.08;100.00
30421;BME280;17218;54.070;10.012;2022-07-06T06:47:13;101947.88;;;18.12;100.00
30421;BME280;17218;54.070;10.012;2022-07-06T06:49:40;101953.94;;;18.16;100.00
30421;BME280;17218;54.070;10.012;2022-07-06T06:52:07;101953.81;;;18.22;100.00
30421;BME280;17218;54.070;10.012;2022-07-06T06:54:33;101956.31;;;18.28;100.00
30421;BME280;17218;54.070;10.012;2022-07-06T06:57:00;101953.66;;;18.30;100.00
30421;BME280;17218;54.070;10.012;2022-07-06T06:59:26;101942.06;;;18.42;100.00
30421;BME280;17218;54.070;10.012;2022-07-06T07:01:54;101949.81;;;18.46;100.00
30421;BME280;17218;54.070;10.012;2022-07-06T07:04:21;101951.53;;;18.47;100.00
30421;BME280;17218;54.070;10.012;2022-07-06T07:06:47;101966.47;;;18.44;100.00
30421;BME280;17218;54.070;10.012;2022-07-06T07:09:14;101971.72;;;18.44;100.00
30421;BME280;17218;54.070;10.012;2022-07-06T07:11:40;101966.44;;;18.47;100.00
30421;BME280;17218;54.070;10.012;2022-07-06T07:14:07;101966.47;;;18.45;100.00
30421;BME280;17218;54.070;10.012;2022-07-06T07:16:33;101956.97;;;18.38;100.00
30421;BME280;17218;54.070;10.012;2022-07-06T07:19:01;101960.03;;;18.16;100.00
30421;BME280;17218;54.070;10.012;2022-07-06T07:21:28;101966.09;;;18.20;100.00
30421;BME280;17218;54.070;10.012;2022-07-06T07:23:54;101962.00;;;18.05;100.00
30421;BME280;17218;54.070;10.012;2022-07-06T07:26:21;101970.88;;;17.96;100.00
30421;BME280;17218;54.070;10.012;2022-07-06T07:28:47;101966.72;;;17.85;100.00
30421;BME280;17218;54.070;10.012;2022-07-06T07:31:14;101975.66;;;17.73;100.00
30421;BME280;17218;54.070;10.012;2022-07-06T07:33:41;101967.47;;;17.42;100.00
30421;BME280;17218;54.070;10.012;2022-07-06T07:36:09;101976.50;;;17.22;100.00
30421;BME280;17218;54.070;10.012;2022-07-06T07:38:35;101973.78;;;17.28;100.00
30421;BME280;17218;54.070;10.012;2022-07-06T07:41:02;101972.56;;;17.49;100.00
30421;BME280;17218;54.070;10.012;2022-07-06T07:43:29;101973.88;;;17.75;100.00
30421;BME280;17218;54.070;10.012;2022-07-06T07:45:55;101960.94;;;18.15;100.00
30421;BME280;17218;54.070;10.012;2022-07-06T07:48:22;101967.19;;;18.52;100.00
30421;BME280;17218;54.070;10.012;2022-07-06T07:50:48;101974.44;;;18.82;100.00
30421;BME280;17218;54.070;10.012;2022-07-06T07:53:16;101970.19;;;18.76;100.00
30421;BME280;17218;54.070;10.012;2022-07-06T07:55:43;101976.09;;;18.84;99.57
30421;BME280;17218;54.070;10.012;2022-07-06T07:58:09;101972.69;;;18.82;100.00
30421;BME280;17218;54.070;10.012;2022-07-06T08:00:36;101970.88;;;18.83;100.00
30421;BME280;17218;54.070;10.012;2022-07-06T08:03:03;101969.94;;;18.87;100.00
30421;BME280;17218;54.070;10.012;2022-07-06T08:05:29;101973.84;;;18.69;100.00
30421;BME280;17218;54.070;10.012;2022-07-06T08:07:56;101983.91;;;18.46;100.00
30421;BME280;17218;54.070;10.012;2022-07-06T08:10:24;101979.09;;;18.69;100.00
30421;BME280;17218;54.070;10.012;2022-07-06T08:12:51;101982.97;;;18.51;100.00
30421;BME280;17218;54.070;10.012;2022-07-06T08:15:18;101988.22;;;18.51;100.00
30421;BME280;17218;54.070;10.012;2022-07-06T08:17:44;101994.16;;;18.59;100.00
30421;BME280;17218;54.070;10.012;2022-07-06T08:20:11;102003.63;;;18.66;100.00
30421;BME280;17218;54.070;10.012;2022-07-06T08:22:38;101994.13;;;18.60;100.00
30421;BME280;17218;54.070;10.012;2022-07-06T08:25:05;102002.44;;;18.39;100.00
30421;BME280;17218;54.070;10.012;2022-07-06T08:27:34;102001.59;;;17.89;100.00
30421;BME280;17218;54.070;10.012;2022-07-06T08:30:00;101997.63;;;17.64;100.00
30421;BME280;17218;54.070;10.012;2022-07-06T08:32:27;102010.16;;;16.85;100.00
30421;BME280;17218;54.070;10.012;2022-07-06T08:34:53;102014.88;;;16.56;100.00
30421;BME280;17218;54.070;10.012;2022-07-06T08:37:20;102012.38;;;16.47;100.00
30421;BME280;17218;54.070;10.012;2022-07-06T08:39:47;102021.38;;;16.21;100.00
30421;BME280;17218;54.070;10.012;2022-07-06T08:42:15;102011.00;;;16.12;100.00
30421;BME280;17218;54.070;10.012;2022-07-06T08:44:44;102013.16;;;15.61;100.00
30421;BME280;17218;54.070;10.012;2022-07-06T08:47:12;102014.75;;;15.79;100.00
30421;BME280;17218;54.070;10.012;2022-07-06T08:49:40;102011.13;;;15.96;100.00
30421;BME280;17218;54.070;10.012;2022-07-06T08:52:08;102015.13;;;16.35;100.00
30421;BME280;17218;54.070;10.012;2022-07-06T08:54:34;102015.97;;;16.35;100.00
30421;BME280;17218;54.070;10.012;2022-07-06T08:57:02;102008.53;;;16.75;100.00
30421;BME280;17218;54.070;10.012;2022-07-06T08:59:29;102004.47;;;17.18;100.00
30421;BME280;17218;54.070;10.012;2022-07-06T09:01:57;101998.34;;;17.74;100.00
30421;BME280;17218;54.070;10.012;2022-07-06T09:04:25;101996.31;;;18.40;100.00
30421;BME280;17218;54.070;10.012;2022-07-06T09:06:52;101984.00;;;18.43;100.00
30421;BME280;17218;54.070;10.012;2022-07-06T09:09:23;101989.50;;;18.72;100.00
30421;BME280;17218;54.070;10.012;2022-07-06T09:11:50;101986.69;;;19.21;100.00
30421;BME280;17218;54.070;10.012;2022-07-06T09:14:17;101991.56;;;19.72;100.00
30421;BME280;17218;54.070;10.012;2022-07-06T09:16:46;101991.13;;;20.22;100.00
30421;BME280;17218;54.070;10.012;2022-07-06T09:19:16;101987.47;;;20.58;100.00
30421;BME280;17218;54.070;10.012;2022-07-06T09:21:42;101985.13;;;20.78;100.00
30421;BME280;17218;54.070;10.012;2022-07-06T09:24:10;101981.63;;;20.77;100.00
30421;BME280;17218;54.070;10.012;2022-07-06T09:26:37;101978.34;;;20.40;97.74
30421;BME280;17218;54.070;10.012;2022-07-06T09:29:05;101987.72;;;20.50;100.00
30421;BME280;17218;54.070;10.012;2022-07-06T09:31:31;101984.38;;;20.74;100.00
30421;BME280;17218;54.070;10.012;2022-07-06T09:34:00;101973.47;;;21.15;100.00
30421;BME280;17218;54.070;10.012;2022-07-06T09:36:48;101981.06;;;21.52;98.70
30421;BME280;17218;54.070;10.012;2022-07-06T09:39:16;101986.75;;;21.39;92.45
30421;BME280;17218;54.070;10.012;2022-07-06T09:41:43;101985.72;;;21.43;98.88
30421;BME280;17218;54.070;10.012;2022-07-06T09:44:10;101993.16;;;21.03;93.28
30421;BME280;17218;54.070;10.012;2022-07-06T09:46:38;101989.41;;;21.11;100.00
30421;BME280;17218;54.070;10.012;2022-07-06T09:49:06;101981.97;;;20.96;94.09
30421;BME280;17218;54.070;10.012;2022-07-06T09:51:35;101984.19;;;20.80;91.19
30421;BME280;17218;54.070;10.012;2022-07-06T09:54:06;101989.59;;;20.76;100.00
30421;BME280;17218;54.070;10.012;2022-07-06T09:56:37;101984.66;;;20.34;100.00
30421;BME280;17218;54.070;10.012;2022-07-06T09:59:07;101981.41;;;20.55;100.00
30421;BME280;17218;54.070;10.012;2022-07-06T10:01:35;101973.41;;;20.88;100.00
30421;BME280;17218;54.070;10.012;2022-07-06T10:04:02;101975.84;;;20.94;100.00
30421;BME280;17218;54.070;10.012;2022-07-06T10:06:28;101979.28;;;21.25;100.00
30421;BME280;17218;54.070;10.012;2022-07-06T10:08:57;101975.19;;;21.43;95.67
30421;BME280;17218;54.070;10.012;2022-07-06T10:11:25;101968.44;;;21.35;94.36
30421;BME280;17218;54.070;10.012;2022-07-06T10:13:54;101962.28;;;21.36;95.62
30421;BME280;17218;54.070;10.012;2022-07-06T10:16:22;101961.50;;;21.85;95.68
30421;BME280;17218;54.070;10.012;2022-07-06T10:18:51;101955.63;;;22.26;90.81
30421;BME280;17218;54.070;10.012;2022-07-06T10:21:20;101960.38;;;22.40;90.21
30421;BME280;17218;54.070;10.012;2022-07-06T10:23:48;101961.78;;;22.26;85.67
30421;BME280;17218;54.070;10.012;2022-07-06T10:26:16;101963.75;;;21.96;85.65
30421;BME280;17218;54.070;10.012;2022-07-06T10:28:44;101957.28;;;21.53;86.72
30421;BME280;17218;54.070;10.012;2022-07-06T10:31:13;101968.84;;;20.34;92.49
30421;BME280;17218;54.070;10.012;2022-07-06T10:33:40;101969.56;;;19.76;100.00
30421;BME280;17218;54.070;10.012;2022-07-06T10:36:07;101970.88;;;19.59;100.00
30421;BME280;17218;54.070;10.012;2022-07-06T10:38:35;101976.06;;;19.61;100.00
30421;BME280;17218;54.070;10.012;2022-07-06T10:41:02;101964.25;;;19.77;100.00
30421;BME280;17218;54.070;10.012;2022-07-06T10:43:33;101970.53;;;19.72;100.00
30421;BME280;17218;54.070;10.012;2022-07-06T10:46:07;101961.00;;;19.69;100.00
30421;BME280;17218;54.070;10.012;2022-07-06T10:48:37;101969.84;;;19.98;100.00
30421;BME280;17218;54.070;10.012;2022-07-06T10:51:04;101970.09;;;19.89;100.00
30421;BME280;17218;54.070;10.012;2022-07-06T10:53:33;101966.03;;;20.10;100.00
30421;BME280;17218;54.070;10.012;2022-07-06T10:56:02;101970.56;;;20.37;100.00
30421;BME280;17218;54.070;10.012;2022-07-06T10:58:41;101963.66;;;20.33;100.00
30421;BME280;17218;54.070;10.012;2022-07-06T11:01:10;101970.00;;;20.56;100.00
30421;BME280;17218;54.070;10.012;2022-07-06T11:03:41;101961.84;;;20.65;98.96
30421;BME280;17218;54.070;10.012;2022-07-06T11:06:10;101961.84;;;20.35;95.17
30421;BME280;17218;54.070;10.012;2022-07-06T11:08:50;101960.38;;;20.55;90.82
30421;BME280;17218;54.070;10.012;2022-07-06T11:11:18;101961.47;;;20.17;93.09
30421;BME280;17218;54.070;10.012;2022-07-06T11:13:50;101954.50;;;20.46;92.33
30421;BME280;17218;54.070;10.012;2022-07-06T11:16:20;101967.72;;;20.73;93.33
30421;BME280;17218;54.070;10.012;2022-07-06T11:18:48;101962.59;;;20.69;84.43
30421;BME280;17218;54.070;10.012;2022-07-06T11:21:17;101953.22;;;20.89;85.13
30421;BME280;17218;54.070;10.012;2022-07-06T11:23:45;101949.41;;;21.26;83.83
30421;BME280;17218;54.070;10.012;2022-07-06T11:26:13;101951.75;;;21.61;79.37
30421;BME280;17218;54.070;10.012;2022-07-06T11:28:40;101943.84;;;21.87;71.98
30421;BME280;17218;54.070;10.012;2022-07-06T11:31:07;101935.38;;;22.02;62.84
30421;BME280;17218;54.070;10.012;2022-07-06T11:33:35;101941.16;;;21.88;63.12
30421;BME280;17218;54.070;10.012;2022-07-06T11:36:18;101939.66;;;21.81;70.92
30421;BME280;17218;54.070;10.012;2022-07-06T11:38:47;101937.31;;;21.97;72.74
30421;BME280;17218;54.070;10.012;2022-07-06T11:41:15;101937.50;;;21.92;68.10
30421;BME280;17218;54.070;10.012;2022-07-06T11:43:42;101934.25;;;22.10;73.89
30421;BME280;17218;54.070;10.012;2022-07-06T11:46:25;101936.47;;;22.21;65.59
30421;BME280;17218;54.070;10.012;2022-07-06T11:48:54;101940.25;;;22.60;69.34
30421;BME280;17218;54.070;10.012;2022-07-06T11:51:21;101931.06;;;23.15;69.94
30421;BME280;17218;54.070;10.012;2022-07-06T11:53:52;101932.94;;;23.55;64.67
30421;BME280;17218;54.070;10.012;2022-07-06T11:56:19;101939.91;;;23.77;61.48
30421;BME280;17218;54.070;10.012;2022-07-06T11:58:48;101931.91;;;22.93;64.13
30421;BME280;17218;54.070;10.012;2022-07-06T12:01:15;101928.28;;;23.18;66.41
30421;BME280;17218;54.070;10.012;2022-07-06T12:03:42;101929.31;;;23.77;69.79
30421;BME280;17218;54.070;10.012;2022-07-06T12:06:16;101905.84;;;25.38;55.14
30421;BME280;17218;54.070;10.012;2022-07-06T12:08:44;101914.38;;;25.79;52.43
30421;BME280;17218;54.070;10.012;2022-07-06T12:11:18;101910.25;;;25.73;52.17
30421;BME280;17218;54.070;10.012;2022-07-06T12:13:45;101908.88;;;25.48;50.88
30421;BME280;17218;54.070;10.012;2022-07-06T12:16:13;101913.72;;;25.40;52.87
30421;BME280;17218;54.070;10.012;2022-07-06T12:18:41;101914.66;;;25.21;52.82
30421;BME280;17218;54.070;10.012;2022-07-06T12:21:08;101916.91;;;24.56;53.72
30421;BME280;17218;54.070;10.012;2022-07-06T12:23:40;101917.94;;;24.34;53.40
30421;BME280;17218;54.070;10.012;2022-07-06T12:26:08;101910.09;;;26.42;49.75
30421;BME280;17218;54.070;10.012;2022-07-06T12:28:35;101900.25;;;28.38;43.17
30421;BME280;17218;54.070;10.012;2022-07-06T12:31:02;101901.63;;;27.28;42.13
30421;BME280;17218;54.070;10.012;2022-07-06T12:33:29;101913.78;;;25.90;44.89
30421;BME280;17218;54.070;10.012;2022-07-06T12:35:56;101914.84;;;24.81;47.95